Abbotsford, Wisconsin
Current Conditions -  °F | °C
As of 7:15 AM on Sunday 23 Nov 2014 (Local Time) from KMDZ Reporting Station
Moderate Fog Moderate Fog  
Wind Chill: 33°   Ceiling: 200
Heat Index: 38°   Visibility: 0mi
Dew Point: 38°   Wind: 7mph
Humidity: 100%   Direction: 170°S
Pressure: 29.53"   Gusts: NA
Location:  44.95°N, 90.32°W
Report Text: KMDZ 231315Z AUTO 17006KT M1/4SM FG OVC002 04/04 A2953 RMK AO2 T00360036
Loading
Personal Weather Stations






























Interactive Weather Map New forecast layout! Learn more

10-Day Weather Forecast

Advertisements
Track Severe Weather on mobile